Time;durP1;ratioP1;P1;durP2;ratioP2;P2;SDS_P1;SDS_P2;PMS_P1;PMS_P2;Temp;Humidity;BMP_temperature;BMP_pressure;BME280_temperature;BME280_humidity;BME280_pressure;Samples;Min_cycle;Max_cycle;Signal;HPM_P1;HPM_P2
2022/05/04 00:01:54;;;;;;;15.13;8.03;;;;;;;;;;4994962;28;20217;-81
2022/05/04 00:04:20;;;;;;;15.27;7.37;;;;;;;;;;4994415;28;20205;-81
2022/05/04 00:06:46;;;;;;;13.80;7.13;;;;;;;;;;4995162;28;20240;-81
2022/05/04 00:09:12;;;;;;;15.17;6.30;;;;;;;;;;4977923;28;20186;-81
2022/05/04 00:11:40;;;;;;;17.37;7.77;;;;;;;;;;4995141;28;20214;-81
2022/05/04 00:14:06;;;;;;;13.53;7.00;;;;;;;;;;4994713;28;20280;-80
2022/05/04 00:16:32;;;;;;;13.20;7.13;;;;;;;;;;4994856;28;20662;-80
2022/05/04 00:18:58;;;;;;;13.90;7.37;;;;;;;;;;4995003;28;20702;-80
2022/05/04 00:21:24;;;;;;;18.80;8.73;;;;;;;;;;4994691;28;20209;-80
2022/05/04 00:23:50;;;;;;;15.20;8.43;;;;;;;;;;4961709;28;20234;-81
2022/05/04 00:26:16;;;;;;;15.57;8.23;;;;;;;;;;4961219;28;20194;-80
2022/05/04 00:28:42;;;;;;;19.07;8.00;;;;;;;;;;4993720;28;20607;-80
2022/05/04 00:31:08;;;;;;;13.87;7.87;;;;;;;;;;4994530;28;20297;-81
2022/05/04 00:33:34;;;;;;;19.63;7.70;;;;;;;;;;4994733;28;20193;-81
2022/05/04 00:36:00;;;;;;;11.47;6.27;;;;;;;;;;4994319;28;20213;-80
2022/05/04 00:38:26;;;;;;;11.67;6.13;;;;;;;;;;4994374;28;20633;-82
2022/05/04 00:40:52;;;;;;;10.50;6.77;;;;;;;;;;4994719;28;20189;-80
2022/05/04 00:43:25;;;;;;;14.97;6.80;;;;;;;;;;4994019;28;20546;-81
2022/05/04 00:45:51;;;;;;;11.23;6.73;;;;;;;;;;4994260;28;20264;-81
2022/05/04 00:48:17;;;;;;;11.80;6.93;;;;;;;;;;4993057;28;20190;-81
2022/05/04 00:50:44;;;;;;;19.00;7.10;;;9.20;99.90;;;;;;4995033;28;20182;-80
2022/05/04 00:53:11;;;;;;;16.07;7.53;;;;;;;;;;4995165;28;20181;-80
2022/05/04 00:55:37;;;;;;;12.17;6.50;;;;;;;;;;4994772;28;20213;-81
2022/05/04 01:00:51;;;;;;;14.73;7.33;;;;;;;;;;4994472;28;20258;-82
2022/05/04 01:03:17;;;;;;;11.70;7.30;;;;;;;;;;4993928;28;20178;-81
2022/05/04 01:05:43;;;;;;;12.87;6.63;;;;;;;;;;4994415;28;20623;-81
2022/05/04 01:08:09;;;;;;;10.40;6.07;;;;;;;;;;4992950;28;20273;-81
2022/05/04 01:10:35;;;;;;;13.00;7.50;;;;;;;;;;4993847;28;20266;-82
2022/05/04 01:13:01;;;;;;;14.57;6.67;;;;;;;;;;4994234;28;20177;-81
2022/05/04 01:15:27;;;;;;;9.93;6.33;;;;;;;;;;4993276;28;20214;-81
2022/05/04 01:17:53;;;;;;;11.17;6.43;;;;;;;;;;4993724;28;20191;-82
2022/05/04 01:20:19;;;;;;;13.40;6.93;;;;;;;;;;4992347;28;20669;-82
2022/05/04 01:22:45;;;;;;;9.13;6.40;;;;;;;;;;4993649;28;20240;-82
2022/05/04 01:25:12;;;;;;;13.57;7.40;;;;;;;;;;4993674;28;20186;-82
2022/05/04 01:27:38;;;;;;;9.87;6.03;;;;;;;;;;4993637;28;20619;-81
2022/05/04 01:30:05;;;;;;;10.37;6.40;;;;;;;;;;4992660;28;20333;-82
2022/05/04 01:32:32;;;;;;;10.70;6.40;;;;;;;;;;4993615;28;20181;-81
2022/05/04 01:34:58;;;;;;;12.50;6.80;;;;;;;;;;4992277;28;20599;-81
2022/05/04 01:37:24;;;;;;;12.03;6.30;;;;;;;;;;4993583;28;20230;-82
2022/05/04 01:39:50;;;;;;;10.40;6.87;;;;;;;;;;4993752;28;20206;-82
2022/05/04 01:42:16;;;;;;;11.23;6.50;;;;;;;;;;4993638;28;20276;-85
2022/05/04 01:44:44;;;;;;;11.57;6.47;;;;;;;;;;4992685;28;20190;-82
2022/05/04 01:47:10;;;;;;;15.27;7.43;;;;;;;;;;4993343;28;20189;-81
2022/05/04 01:49:37;;;;;;;10.23;6.07;;;;;;;;;;4993366;28;20185;-81
2022/05/04 01:52:03;;;;;;;16.13;8.03;;;;;;;;;;4993661;28;20232;-81
2022/05/04 01:54:29;;;;;;;17.77;6.47;;;;;;;;;;4993275;28;20677;-82
2022/05/04 01:56:55;;;;;;;19.27;7.17;;;;;;;;;;4993442;28;20249;-81
2022/05/04 01:59:21;;;;;;;16.20;6.93;;;;;;;;;;4976059;28;20224;-82
2022/05/04 02:01:47;;;;;;;12.73;6.80;;;;;;;;;;4992195;28;20184;-81
2022/05/04 02:04:14;;;;;;;15.63;8.00;;;;;;;;;;4993283;28;20178;-81
2022/05/04 02:06:40;;;;;;;13.93;7.27;;;;;;;;;;4993172;28;20217;-82
2022/05/04 02:09:06;;;;;;;17.33;7.67;;;;;;;;;;4992141;28;20272;-81
2022/05/04 02:11:33;;;;;;;18.07;6.70;;;8.80;99.90;;;;;;4993215;28;20209;-81
2022/05/04 02:14:00;;;;;;;11.50;7.63;;;;;;;;;;4993340;28;20190;-81
2022/05/04 02:16:26;;;;;;;16.97;6.57;;;;;;;;;;4992775;28;20562;-82
2022/05/04 02:18:52;;;;;;;18.03;6.90;;;;;;;;;;4993051;28;20265;-82
2022/05/04 02:21:18;;;;;;;19.90;7.60;;;;;;;;;;4993404;28;20192;-81
2022/05/04 02:23:44;;;;;;;14.87;5.97;;;;;;;;;;4992734;28;20178;-81
2022/05/04 02:26:10;;;;;;;12.47;7.10;;;;;;;;;;4993004;28;20182;-81
2022/05/04 02:28:37;;;;;;;9.83;6.40;;;;;;;;;;4995902;28;20619;-81
2022/05/04 02:31:03;;;;;;;11.70;6.33;;;;;;;;;;4997257;28;20185;-80
2022/05/04 02:33:29;;;;;;;17.10;6.53;;;;;;;;;;4996673;28;20189;-81
2022/05/04 02:38:40;;;;;;;16.07;6.93;;;;;;;;;;4996592;28;20174;-81
2022/05/04 02:41:06;;;;;;;12.00;6.33;;;;;;;;;;4996547;28;20260;-81
2022/05/04 02:43:33;;;;;;;11.70;6.13;;;;;;;;;;4995479;28;20190;-81
2022/05/04 02:46:11;;;;;;;16.27;7.67;;;;;;;;;;4996821;28;20200;-81
2022/05/04 02:48:38;;;;;;;11.57;6.80;;;;;;;;;;4995232;28;20188;-81
2022/05/04 02:51:04;;;;;;;9.70;6.37;;;;;;;;;;4996641;28;20214;-81
2022/05/04 02:53:30;;;;;;;13.33;7.00;;;;;;;;;;4995048;28;20537;-81
2022/05/04 02:55:56;;;;;;;14.23;6.87;;;;;;;;;;4996143;28;20617;-81
2022/05/04 02:58:22;;;;;;;14.37;6.10;;;;;;;;;;4996752;28;20182;-81
2022/05/04 03:00:48;;;;;;;9.70;5.47;;;;;;;;;;4995882;28;20182;-82
2022/05/04 03:03:14;;;;;;;8.60;5.77;;;;;;;;;;4996380;28;20241;-82
2022/05/04 03:05:40;;;;;;;11.83;5.90;;;;;;;;;;4996047;28;20578;-82
2022/05/04 03:08:06;;;;;;;15.73;6.83;;;;;;;;;;4996288;28;20194;-82
2022/05/04 03:11:54;;;;;;;12.80;5.67;;;;;;;;;;4995769;28;20209;-81
2022/05/04 03:13:18;;;;;;;12.10;5.90;;;;;;;;;;4995827;28;20169;-81
2022/05/04 03:15:44;;;;;;;13.47;6.93;;;;;;;;;;4995810;28;20225;-81
2022/05/04 03:18:10;;;;;;;12.03;6.07;;;;;;;;;;4996213;28;20178;-81
2022/05/04 03:20:36;;;;;;;9.13;5.13;;;;;;;;;;4995772;28;20181;-81
2022/05/04 03:23:02;;;;;;;13.27;7.00;;;;;;;;;;4995999;28;20174;-81
2022/05/04 03:25:28;;;;;;;9.63;6.43;;;;;;;;;;4995430;28;20218;-81
2022/05/04 03:27:54;;;;;;;10.10;5.80;;;;;;;;;;4978369;28;20264;-81
2022/05/04 03:30:20;;;;;;;13.07;6.20;;;;;;;;;;4995631;28;20186;-81
2022/05/04 03:32:46;;;;;;;14.30;6.90;;;;;;;;;;4991963;28;20639;-82
2022/05/04 03:35:12;;;;;;;10.80;4.70;;;;;;;;;;4984614;28;20301;-83
2022/05/04 03:37:38;;;;;;;10.60;5.03;;;;;;;;;;4987727;28;20303;-82
2022/05/04 03:40:05;;;;;;;9.50;6.30;;;;;;;;;;4968757;28;20249;-81
2022/05/04 03:42:31;;;;;;;12.27;5.50;;;;;;;;;;4980897;28;20185;-81
2022/05/04 03:44:57;;;;;;;10.73;6.20;;;;;;;;;;4990645;28;20206;-81
2022/05/04 03:47:23;;;;;;;11.47;6.30;;;;;;;;;;4985991;28;20193;-81
2022/05/04 03:49:49;;;;;;;9.43;5.77;;;;;;;;;;4983448;28;20198;-81
2022/05/04 03:52:15;;;;;;;14.03;6.50;;;;;;;;;;4988214;28;20277;-81
2022/05/04 03:54:41;;;;;;;16.47;6.83;;;;;;;;;;4981247;28;20623;-81
2022/05/04 03:57:07;;;;;;;9.00;5.53;;;;;;;;;;4986483;28;20598;-81
2022/05/04 03:59:33;;;;;;;9.37;5.90;;;;;;;;;;4992968;28;20201;-82
2022/05/04 04:01:59;;;;;;;11.40;7.00;;;;;;;;;;4965256;28;20202;-82
2022/05/04 04:04:25;;;;;;;9.40;4.67;;;;;;;;;;4993249;28;20190;-82
2022/05/04 04:06:51;;;;;;;9.63;5.87;;;;;;;;;;4994079;28;20225;-81
2022/05/04 04:09:17;;;;;;;9.93;5.27;;;;;;;;;;4992069;28;20341;-84
2022/05/04 04:11:43;;;;;;;8.47;5.53;;;;;;;;;;4990421;28;20706;-80
2022/05/04 04:14:09;;;;;;;11.23;6.05;;;;;;;;;;4990620;28;20190;-79
2022/05/04 04:16:35;;;;;;;9.00;5.57;;;;;;;;;;4990778;28;20221;-80
2022/05/04 04:19:01;;;;;;;10.53;6.40;;;;;;;;;;4988724;28;20221;-82
2022/05/04 04:24:12;;;;;;;8.07;5.17;;;;;;;;;;4988874;28;20590;-81
2022/05/04 04:26:39;;;;;;;8.50;5.17;;;;;;;;;;4984840;28;20189;-82
2022/05/04 04:29:05;;;;;;;10.97;4.30;;;;;;;;;;4977517;28;20238;-82
2022/05/04 04:31:31;;;;;;;7.13;4.00;;;;;;;;;;4960784;28;20972;-85
2022/05/04 04:33:57;;;;;;;9.50;4.53;;;;;;;;;;4973899;28;20644;-80
2022/05/04 04:36:23;;;;;;;6.33;3.93;;;;;;;;;;4971002;28;20238;-81
2022/05/04 04:38:49;;;;;;;6.27;4.20;;;;;;;;;;4970360;28;20253;-82
2022/05/04 04:41:15;;;;;;;4.72;3.25;;;;;;;;;;4974310;28;20199;-80
2022/05/04 04:43:41;;;;;;;5.43;3.13;;;;;;;;;;4979944;28;20290;-80
2022/05/04 04:46:07;;;;;;;4.33;2.70;;;;;;;;;;4982263;28;20189;-81
2022/05/04 04:48:33;;;;;;;3.87;2.90;;;;;;;;;;4976932;28;20215;-82
2022/05/04 04:51:00;;;;;;;5.15;4.00;;;;;;;;;;4972218;28;20241;-83
2022/05/04 04:56:49;;;;;;;4.33;2.37;;;;;;;;;;5216643;23;20251;-81
2022/05/04 04:59:15;;;;;;;5.10;2.70;;;;;;;;;;4995930;28;20220;-79
2022/05/04 05:01:41;;;;;;;4.47;2.15;;;;;;;;;;5020042;28;20212;-81
2022/05/04 05:04:07;;;;;;;3.40;2.85;;;;;;;;;;5017711;28;20212;-81
2022/05/04 05:06:34;;;;;;;4.03;2.33;;;;;;;;;;5017576;28;20195;-80
2022/05/04 05:08:59;;;;;;;3.10;2.35;;;;;;;;;;5012219;28;20667;-82
2022/05/04 05:11:26;;;;;;;6.73;2.33;;;;;;;;;;5032968;28;20184;-82
2022/05/04 05:16:36;;;;;;;2.00;1.80;;;;;;;;;;5032018;28;20207;-81
2022/05/04 05:19:02;;;;;;;4.05;2.67;;;;;;;;;;5018492;28;20197;-80
2022/05/04 05:21:29;;;;;;;4.55;2.83;;;;;;;;;;5012756;28;20228;-82
2022/05/04 05:23:55;;;;;;;5.13;2.72;;;;;;;;;;5012934;28;20204;-81
2022/05/04 05:26:21;;;;;;;3.47;2.45;;;;;;;;;;5012648;28;20191;-82
2022/05/04 05:28:47;;;;;;;4.07;2.40;;;;;;;;;;5012306;28;20487;-81
2022/05/04 05:31:16;;;;;;;4.10;2.45;;;;;;;;;;5012567;28;20676;-82
2022/05/04 05:33:45;;;;;;;3.88;2.80;;;;;;;;;;5012139;28;20181;-82
2022/05/04 05:36:11;;;;;;;2.78;2.20;;;;;;;;;;5012015;28;20208;-84
2022/05/04 05:38:37;;;;;;;5.70;2.80;;;;;;;;;;5011756;28;20200;-81
2022/05/04 05:41:03;;;;;;;4.35;2.17;;;;;;;;;;5011540;28;20185;-81
2022/05/04 05:43:29;;;;;;;4.15;2.92;;;;;;;;;;5011669;28;20185;-81
2022/05/04 05:45:55;;;;;;;3.58;2.33;;;;;;;;;;5011456;28;20239;-82
2022/05/04 05:48:21;;;;;;;4.60;2.05;;;;;;;;;;5011701;28;20213;-81
2022/05/04 05:50:48;;;;;;;4.20;2.08;;;;;;;;;;5012614;28;20510;-81
2022/05/04 05:53:17;;;;;;;6.75;2.55;;;;;;;;;;5011574;28;20177;-83
2022/05/04 05:55:43;;;;;;;3.22;2.47;;;;;;;;;;4972123;28;20262;-82
2022/05/04 05:58:12;;;;;;;6.40;2.47;;;;;;;;;;5010853;28;20261;-82
2022/05/04 06:00:38;;;;;;;5.85;2.75;;;;;;;;;;5009639;28;20189;-82
2022/05/04 06:03:04;;;;;;;3.60;2.78;;;;;;;;;;4994370;28;20238;-84
2022/05/04 06:05:30;;;;;;;3.22;2.33;;;;;;;;;;5013822;28;20220;-82
2022/05/04 06:07:56;;;;;;;2.83;2.40;;;;;;;;;;5015242;28;20703;-80
2022/05/04 06:10:22;;;;;;;5.50;2.58;;;;;;;;;;4997175;28;20264;-81
2022/05/04 06:12:48;;;;;;;4.53;2.80;;;;;;;;;;5014966;28;20721;-81
2022/05/04 06:15:14;;;;;;;3.75;2.17;;;;;;;;;;5014644;28;20205;-82
2022/05/04 06:17:41;;;;;;;4.50;2.30;;;;;;;;;;5014691;28;20190;-82
2022/05/04 06:20:07;;;;;;;3.10;1.92;;;11.20;99.90;;;;;;5014525;28;20260;-82
2022/05/04 06:22:33;;;;;;;2.72;2.13;;;;;;;;;;5014085;28;20326;-81
2022/05/04 06:24:59;;;;;;;5.80;3.20;;;;;;;;;;5014307;28;20267;-82
2022/05/04 06:27:28;;;;;;;5.20;3.42;;;;;;;;;;5013928;28;20677;-81
2022/05/04 06:35:24;;;;;;;3.10;2.08;;;;;;;;;;5012126;28;20220;-82
2022/05/04 06:37:50;;;;;;;3.10;2.33;;;;;;;;;;5013878;28;20225;-84
2022/05/04 06:40:16;;;;;;;4.10;2.25;;;;;;;;;;5013346;28;20213;-83
2022/05/04 06:42:42;;;;;;;3.55;2.45;;;;;;;;;;5014812;28;20603;-83
2022/05/04 06:45:09;;;;;;;2.95;1.95;;;;;;;;;;4995517;28;20200;-83
2022/05/04 06:47:35;;;;;;;5.60;3.35;;;;;;;;;;4995464;28;20556;-84
2022/05/04 06:50:03;;;;;;;4.25;2.17;;;12.70;99.90;;;;;;5015215;28;20660;-83
2022/05/04 06:52:30;;;;;;;2.75;2.33;;;12.30;99.90;;;;;;5014913;28;20189;-84
2022/05/04 06:54:56;;;;;;;4.30;3.25;;;;;;;;;;5015170;28;20208;-83
2022/05/04 06:57:22;;;;;;;2.50;2.20;;;;;;;;;;5014771;28;20280;-84
2022/05/04 06:59:48;;;;;;;4.20;2.90;;;;;;;;;;5015536;28;20177;-84
2022/05/04 07:02:14;;;;;;;4.03;2.50;;;;;;;;;;5015350;28;20181;-83
2022/05/04 07:04:40;;;;;;;3.45;2.80;;;;;;;;;;4997642;28;20626;-83
2022/05/04 07:07:06;;;;;;;4.60;2.00;;;;;;;;;;5015390;28;20777;-84
2022/05/04 07:09:35;;;;;;;4.38;2.70;;;;;;;;;;5016450;28;20193;-83
2022/05/04 07:12:01;;;;;;;7.55;3.08;;;;;;;;;;4998426;28;20269;-83
2022/05/04 07:14:28;;;;;;;5.05;2.63;;;;;;;;;;5013625;28;20180;-82
2022/05/04 07:16:54;;;;;;;3.08;2.03;;;;;;;;;;5015560;28;20220;-83
2022/05/04 07:19:20;;;;;;;4.65;2.67;;;;;;;;;;5014517;28;20212;-83
2022/05/04 07:21:46;;;;;;;5.68;3.47;;;;;;;;;;5015037;28;20216;-83
2022/05/04 07:24:12;;;;;;;5.75;2.67;;;;;;;;;;4997665;28;20225;-84
2022/05/04 07:26:39;;;;;;;2.60;2.05;;;;;;;;;;5014695;28;20223;-84
2022/05/04 07:29:05;;;;;;;7.50;2.47;;;;;;;;;;5014631;28;20589;-83
2022/05/04 07:31:31;;;;;;;3.88;2.20;;;;;;;;;;5014866;28;20185;-83
2022/05/04 07:33:57;;;;;;;3.47;2.40;;;;;;;;;;5014492;28;20173;-83
2022/05/04 07:36:23;;;;;;;2.53;1.98;;;;;;;;;;5014296;28;20204;-83
2022/05/04 07:38:49;;;;;;;1.95;1.70;;;;;;;;;;5014681;28;20177;-83
2022/05/04 07:44:00;;;;;;;2.97;2.05;;;;;;;;;;5014266;28;20331;-84
2022/05/04 07:46:27;;;;;;;2.00;1.65;;;;;;;;;;5014049;28;20644;-84
2022/05/04 07:48:54;;;;;;;3.03;2.17;;;;;;;;;;5014527;28;20192;-84
2022/05/04 07:51:20;;;;;;;2.38;1.77;;;;;;;;;;5014607;28;20185;-83
2022/05/04 07:53:46;;;;;;;4.55;2.33;;;;;;;;;;4996599;28;20712;-83
2022/05/04 07:56:12;;;;;;;2.63;1.80;;;;;;;;;;4996653;28;20552;-83
2022/05/04 07:58:38;;;;;;;3.33;1.85;;;;;;;;;;5013785;28;20630;-83
2022/05/04 08:06:33;;;;;;;2.55;2.00;;;;;;;;;;5000191;28;20228;-83
2022/05/04 08:08:59;;;;;;;2.25;1.75;;;;;;;;;;4996870;28;20177;-83
2022/05/04 08:11:25;;;;;;;2.70;2.03;;;;;;;;;;5014981;28;20177;-83
2022/05/04 08:13:51;;;;;;;2.95;2.10;;;;;;;;;;4997614;28;20622;-84
2022/05/04 08:16:18;;;;;;;2.28;1.80;;;;;;;;;;4996518;28;20567;-84
2022/05/04 08:18:44;;;;;;;3.58;2.47;;;;;;;;;;4995595;28;20195;-84
2022/05/04 08:21:11;;;;;;;4.57;2.00;;;;;;;;;;5013893;28;20705;-84
2022/05/04 08:23:37;;;;;;;2.97;2.10;;;;;;;;;;4995943;28;20181;-84
2022/05/04 08:26:03;;;;;;;2.00;1.48;;;;;;;;;;5013053;28;20185;-84
2022/05/04 08:28:30;;;;;;;2.78;1.83;;;;;;;;;;5010251;28;20189;-84
2022/05/04 08:30:57;;;;;;;2.65;2.10;;;15.50;99.90;;;;;;5012793;28;20177;-84
2022/05/04 08:33:23;;;;;;;2.83;1.50;;;;;;;;;;4993934;28;20178;-84
2022/05/04 08:35:49;;;;;;;6.07;1.73;;;;;;;;;;5012042;28;20209;-84
2022/05/04 08:38:15;;;;;;;2.60;2.10;;;;;;;;;;5012504;28;20188;-84
2022/05/04 08:40:41;;;;;;;3.92;2.03;;;;;;;;;;5006040;28;20188;-85
2022/05/04 08:43:09;;;;;;;2.20;1.77;;;;;;;;;;5033881;28;20201;-83
2022/05/04 08:45:39;;;;;;;1.88;1.60;;;15.70;99.80;;;;;;5037800;28;20188;-84
2022/05/04 08:48:07;;;;;;;1.63;1.35;;;15.70;99.90;;;;;;5038452;28;20153;-83
2022/05/04 08:50:34;;;;;;;2.97;1.85;;;;;;;;;;5020493;28;20204;-85
2022/05/04 08:53:02;;;;;;;1.95;1.60;;;15.70;97.70;;;;;;5037521;28;20193;-87
2022/05/04 08:55:28;;;;;;;2.88;1.77;;;;;;;;;;5033116;28;20189;-83
2022/05/04 08:57:55;;;;;;;2.17;1.67;;;;;;;;;;5028543;28;20241;-84
2022/05/04 09:00:21;;;;;;;2.58;1.45;;;;;;;;;;5036592;28;20196;-85
2022/05/04 09:02:47;;;;;;;1.90;1.23;;;;;;;;;;5037942;28;20193;-84
2022/05/04 09:05:22;;;;;;;2.08;1.60;;;15.80;99.90;;;;;;5020280;28;20220;-85
2022/05/04 09:07:49;;;;;;;1.65;1.40;;;15.90;94.80;;;;;;5022368;28;20165;-85
2022/05/04 09:10:21;;;;;;;2.35;1.88;;;15.80;97.70;;;;;;5000509;28;20630;-84
2022/05/04 09:12:48;;;;;;;2.15;1.45;;;16.00;98.30;;;;;;5018378;28;20181;-84
2022/05/04 09:15:26;;;;;;;2.17;1.40;;;16.20;95.30;;;;;;4997750;28;20267;-84
2022/05/04 09:18:00;;;;;;;3.30;2.00;;;16.20;95.40;;;;;;5015187;28;20173;-84
2022/05/04 09:23:28;;;;;;;2.80;1.85;;;16.70;93.30;;;;;;5013811;28;20184;-86
2022/05/04 09:25:54;;;;;;;2.15;1.55;;;;;;;;;;5013273;28;20195;-86
2022/05/04 09:28:22;;;;;;;2.03;1.48;;;16.80;91.60;;;;;;5013562;28;20185;-83
2022/05/04 09:30:52;;;;;;;2.40;1.30;;;17.20;93.50;;;;;;5013273;28;20181;-85
2022/05/04 09:33:28;;;;;;;2.15;1.67;;;16.80;99.90;;;;;;4996189;28;20544;-86
2022/05/04 09:35:58;;;;;;;2.33;1.20;;;16.60;92.50;;;;;;5012397;28;20284;-86
2022/05/04 09:46:48;;;;;;;1.38;1.13;;;17.60;89.70;;;;;;4993879;28;20266;-86
2022/05/04 09:49:29;;;;;;;1.52;1.42;;;17.90;86.10;;;;;;4993698;28;20541;-88
2022/05/04 09:51:57;;;;;;;1.45;1.20;;;;;;;;;;4975476;28;20235;-83
2022/05/04 09:54:27;;;;;;;1.52;1.20;;;17.70;80.60;;;;;;4975688;28;20189;-86
2022/05/04 09:56:54;;;;;;;1.40;1.00;;;;;;;;;;4988860;28;20668;-86
2022/05/04 09:59:25;;;;;;;1.02;0.95;;;17.30;99.90;;;;;;4995257;28;20185;-85
2022/05/04 10:01:53;;;;;;;1.27;1.00;;;17.20;99.60;;;;;;4995806;28;20192;-88
2022/05/04 10:04:26;;;;;;;1.58;1.17;;;17.20;99.90;;;;;;4982394;28;20272;-87
2022/05/04 10:06:54;;;;;;;1.20;1.10;;;17.00;99.80;;;;;;5014247;28;20184;-86
2022/05/04 10:09:21;;;;;;;2.10;1.45;;;16.40;76.50;;;;;;4996083;28;20648;-86
2022/05/04 10:11:48;;;;;;;1.85;1.10;;;16.10;78.00;;;;;;5015126;28;20263;-84
2022/05/04 10:14:15;;;;;;;1.92;1.13;;;16.30;99.90;;;;;;4997749;28;20185;-85
2022/05/04 10:17:02;;;;;;;1.30;1.15;;;15.90;99.90;;;;;;4998300;28;20562;-85
2022/05/04 10:19:45;;;;;;;1.30;1.10;;;16.30;99.90;;;;;;5016396;28;20161;-84
2022/05/04 10:22:16;;;;;;;1.77;1.40;;;16.10;82.80;;;;;;5017092;28;20169;-84
2022/05/04 10:24:43;;;;;;;1.27;0.95;;;16.10;80.50;;;;;;5015994;28;20164;-85
2022/05/04 10:27:22;;;;;;;1.13;1.05;;;16.10;78.60;;;;;;5001321;28;20240;-83
2022/05/04 10:32:45;;;;;;;2.78;1.05;;;16.10;80.00;;;;;;5018837;28;20177;-83
2022/05/04 10:35:34;;;;;;;1.13;0.95;;;16.30;99.90;;;;;;4986619;28;20288;-83
2022/05/04 10:37:59;;;;;;;2.30;1.33;;;15.90;99.90;;;;;;5016851;28;20166;-82
2022/05/04 10:40:31;;;;;;;1.73;1.17;;;16.80;99.90;;;;;;4999703;28;20763;-84
2022/05/04 10:43:34;;;;;;;1.15;1.05;;;16.60;79.80;;;;;;5000441;28;20181;-82
2022/05/04 10:46:08;;;;;;;2.45;1.35;;;16.80;76.90;;;;;;5016929;28;20196;-84
2022/05/04 10:48:34;;;;;;;1.02;0.90;;;17.10;99.90;;;;;;5016273;28;20264;-85
2022/05/04 10:51:24;;;;;;;0.98;0.93;;;17.70;99.90;;;;;;5018133;28;20677;-84
2022/05/04 10:53:53;;;;;;;1.98;1.00;;;17.90;97.70;;;;;;5019439;28;20158;-83
2022/05/04 10:56:27;;;;;;;0.75;0.70;;;17.60;71.50;;;;;;5018957;28;20197;-84
2022/05/04 10:58:59;;;;;;;1.65;1.08;;;17.90;98.30;;;;;;5019832;28;20169;-84
2022/05/04 11:01:36;;;;;;;0.85;0.85;;;18.00;98.70;;;;;;5016897;28;20177;-85
2022/05/04 11:04:11;;;;;;;1.13;0.90;;;17.60;96.80;;;;;;4999471;28;20196;-83
2022/05/04 11:06:49;;;;;;;0.75;0.75;;;17.90;97.50;;;;;;4999495;28;20180;-86
2022/05/04 11:09:20;;;;;;;0.88;0.88;;;17.10;97.30;;;;;;4999414;28;20177;-84
2022/05/04 11:11:48;;;;;;;0.95;0.82;;;17.60;98.40;;;;;;5015716;28;20174;-84
2022/05/04 11:14:17;;;;;;;1.55;0.90;;;17.50;98.30;;;;;;4998300;28;20179;-84
2022/05/04 11:16:44;;;;;;;2.28;1.20;;;16.90;99.10;;;;;;5015214;28;20205;-85
2022/05/04 11:19:12;;;;;;;1.45;1.10;;;;;;;;;;4998008;28;20193;-86
2022/05/04 11:21:38;;;;;;;1.80;1.20;;;16.80;88.80;;;;;;4998172;28;20212;-85
2022/05/04 11:24:07;;;;;;;1.35;1.10;;;16.90;79.60;;;;;;4997003;28;20188;-87
2022/05/04 11:26:44;;;;;;;1.48;1.17;;;17.30;74.00;;;;;;5013262;28;20217;-85
2022/05/04 11:29:15;;;;;;;2.65;0.88;;;17.60;74.10;;;;;;5015323;28;20567;-86
2022/05/04 11:32:02;;;;;;;3.55;1.17;;;18.00;74.30;;;;;;4997761;28;20185;-85
2022/05/04 11:34:36;;;;;;;2.45;1.00;;;17.90;69.00;;;;;;5015320;28;20165;-86
2022/05/04 11:37:11;;;;;;;5.30;1.10;;;17.60;69.20;;;;;;5015050;28;20244;-84
2022/05/04 11:39:38;;;;;;;1.02;0.93;;;17.00;96.90;;;;;;4997952;28;20618;-83
2022/05/04 11:42:07;;;;;;;2.70;1.08;;;17.20;87.20;;;;;;4997265;28;20196;-85
2022/05/04 11:44:34;;;;;;;2.10;1.30;;;;;;;;;;4977885;28;20666;-86
2022/05/04 11:47:01;;;;;;;2.78;1.30;;;16.90;71.30;;;;;;4995872;28;20181;-85
2022/05/04 11:49:29;;;;;;;1.63;1.30;;;17.10;70.90;;;;;;5012629;28;20196;-84
2022/05/04 11:51:56;;;;;;;3.83;2.47;;;17.40;98.70;;;;;;5012859;28;20176;-84
2022/05/04 11:54:22;;;;;;;2.20;1.25;;;16.60;98.00;;;;;;4995432;28;20196;-85
2022/05/04 11:56:48;;;;;;;1.85;1.20;;;;;;;;;;4994528;28;20260;-85
2022/05/04 11:59:14;;;;;;;2.83;1.30;;;18.30;97.40;;;;;;5013026;28;20177;-85
2022/05/04 12:01:40;;;;;;;1.73;1.00;;;;;;;;;;4997065;28;20189;-85
2022/05/04 12:04:09;;;;;;;1.13;0.80;;;17.60;62.90;;;;;;4995528;28;20264;-85
2022/05/04 12:06:36;;;;;;;2.70;1.33;;;;;;;;;;5012716;28;20271;-84
2022/05/04 12:09:03;;;;;;;1.33;1.05;;;17.20;69.80;;;;;;4980340;28;20189;-85
2022/05/04 12:11:29;;;;;;;1.13;0.98;;;;;;;;;;5014496;28;20191;-85
2022/05/04 12:13:59;;;;;;;3.92;1.20;;;;;;;;;;4995884;28;20182;-84
2022/05/04 12:16:25;;;;;;;0.80;0.80;;;;;;;;;;5012672;28;20201;-85
2022/05/04 12:18:51;;;;;;;1.67;1.42;;;;;;;;;;4994782;28;20235;-85
2022/05/04 12:21:21;;;;;;;3.05;1.20;;;16.60;84.20;;;;;;5009157;28;20185;-85
2022/05/04 12:23:50;;;;;;;2.58;1.40;;;16.80;97.50;;;;;;5011727;28;20182;-85
2022/05/04 12:26:16;;;;;;;1.88;1.10;;;17.60;71.50;;;;;;4994588;28;20177;-85
2022/05/04 12:33:08;;;;;;;1.35;1.02;;;16.40;69.00;;;;;;4994710;28;20658;-84
2022/05/04 12:34:15;;;;;;;1.30;1.20;;;;;;;;;;5010914;28;20729;-85
2022/05/04 12:36:44;;;;;;;1.38;1.27;;;16.70;71.60;;;;;;4980193;28;20246;-85
2022/05/04 12:39:10;;;;;;;0.75;0.70;;;;;;;;;;5014353;28;20177;-85
2022/05/04 12:41:37;;;;;;;2.25;1.38;;;;;;;;;;5014724;28;20646;-86
2022/05/04 12:44:06;;;;;;;0.98;0.82;;;18.30;63.80;;;;;;5013098;28;20212;-86
2022/05/04 12:46:32;;;;;;;1.20;0.85;;;;;;;;;;5013580;28;20185;-86
2022/05/04 12:48:58;;;;;;;1.75;1.23;;;;;;;;;;5012682;28;20192;-85
2022/05/04 12:51:25;;;;;;;1.92;1.38;;;;;;;;;;5015746;28;20190;-85
2022/05/04 12:53:51;;;;;;;3.92;1.45;;;;;;;;;;4996303;28;20196;-86
2022/05/04 12:59:02;;;;;;;1.27;0.90;;;19.80;96.60;;;;;;5013738;28;20487;-85
2022/05/04 13:01:30;;;;;;;1.67;1.10;;;;;;;;;;4996021;28;20347;-84
2022/05/04 13:03:56;;;;;;;2.00;0.95;;;;;;;;;;5020317;28;20231;-86
2022/05/04 13:06:23;;;;;;;0.65;0.60;;;;;;;;;;4980202;28;20181;-86
2022/05/04 13:08:49;;;;;;;1.60;0.88;;;;;;;;;;4989303;28;20272;-85
2022/05/04 13:11:15;;;;;;;1.70;1.00;;;19.70;59.50;;;;;;4995417;28;20228;-86
2022/05/04 13:13:42;;;;;;;1.20;0.90;;;;;;;;;;4980512;28;20185;-86
2022/05/04 13:16:08;;;;;;;1.13;0.85;;;;;;;;;;4997413;28;20209;-86
2022/05/04 13:18:34;;;;;;;1.13;1.02;;;;;;;;;;4995385;28;20189;-85
2022/05/04 13:21:00;;;;;;;5.82;1.10;;;;;;;;;;4994476;28;20272;-85
2022/05/04 13:23:26;;;;;;;0.80;0.77;;;;;;;;;;4996119;28;20173;-85
2022/05/04 13:25:52;;;;;;;1.23;1.05;;;;;;;;;;4997007;28;20181;-87
2022/05/04 13:28:20;;;;;;;1.63;1.00;;;20.10;54.60;;;;;;5012576;28;20212;-86
2022/05/04 13:30:46;;;;;;;1.20;0.80;;;;;;;;;;4995784;28;20181;-86
2022/05/04 13:33:12;;;;;;;1.90;0.90;;;;;;;;;;5013653;28;20287;-85
2022/05/04 13:35:39;;;;;;;1.30;0.80;;;;;;;;;;4995747;28;20343;-85
2022/05/04 13:38:05;;;;;;;0.70;0.70;;;;;;;;;;4994799;28;20264;-84
2022/05/04 13:40:32;;;;;;;1.05;0.88;;;;;;;;;;5013189;28;20191;-84
2022/05/04 13:42:58;;;;;;;1.15;0.90;;;;;;;;;;5012861;28;20179;-85
2022/05/04 13:45:24;;;;;;;1.52;1.05;;;;;;;;;;5012573;28;20189;-84
2022/05/04 13:47:50;;;;;;;1.73;0.68;;;;;;;;;;4995297;28;20248;-84
2022/05/04 13:53:16;;;;;;;3.00;1.08;;;;;;;;;;5011394;28;20175;-83
2022/05/04 13:55:46;;;;;;;2.00;0.95;;;;;;;;;;4995067;28;20320;-84
2022/05/04 13:58:13;;;;;;;1.95;0.80;;;20.00;90.50;;;;;;5013111;28;20283;-85
2022/05/04 14:00:39;;;;;;;0.90;0.77;;;;;;;;;;5011927;28;20185;-84
2022/05/04 14:03:06;;;;;;;1.17;0.60;;;;;;;;;;5012253;28;20189;-86
2022/05/04 14:05:32;;;;;;;1.17;0.80;;;;;;;;;;5012045;28;20193;-86
2022/05/04 14:07:58;;;;;;;0.95;0.70;;;;;;;;;;4995813;28;20650;-86
2022/05/04 14:10:24;;;;;;;0.80;0.80;;;;;;;;;;5013026;28;20177;-85
2022/05/04 14:12:50;;;;;;;1.70;0.90;;;;;;;;;;5013250;28;20173;-86
2022/05/04 14:15:16;;;;;;;1.92;0.60;;;;;;;;;;5012459;28;20208;-86
2022/05/04 14:17:42;;;;;;;0.88;0.80;;;19.40;87.40;;;;;;5012834;28;20793;-84
2022/05/04 14:20:08;;;;;;;0.88;0.80;;;19.40;83.20;;;;;;4994613;28;20183;-83
2022/05/04 14:22:34;;;;;;;1.23;0.90;;;;;;;;;;4978747;28;20185;-85
2022/05/04 14:25:01;;;;;;;1.50;1.00;;;;;;;;;;4999423;28;20646;-84
2022/05/04 14:27:27;;;;;;;0.95;0.80;;;20.00;53.40;;;;;;4999349;28;20170;-86
2022/05/04 14:29:53;;;;;;;1.30;0.80;;;;;;;;;;5017366;28;20611;-85
2022/05/04 14:32:19;;;;;;;1.00;0.82;;;;;;;;;;4999962;28;20243;-84
2022/05/04 14:34:45;;;;;;;0.93;0.80;;;20.00;65.00;;;;;;5015608;28;20235;-83
2022/05/04 14:37:11;;;;;;;2.28;1.30;;;;;;;;;;5001268;28;20185;-84
2022/05/04 14:39:37;;;;;;;3.08;1.23;;;;;;;;;;5028163;28;20235;-84
2022/05/04 14:42:04;;;;;;;1.15;0.90;;;19.00;88.60;;;;;;5025265;28;20280;-84
2022/05/04 14:44:31;;;;;;;1.67;1.10;;;;;;;;;;5006218;28;20355;-84
2022/05/04 14:46:59;;;;;;;1.90;0.88;;;;;;;;;;5011356;28;20205;-85
2022/05/04 14:49:25;;;;;;;0.68;0.68;;;;;;;;;;5023735;28;20170;-85
2022/05/04 14:51:51;;;;;;;0.80;0.80;;;;;;;;;;5040601;28;20173;-83
2022/05/04 14:54:17;;;;;;;0.90;0.70;;;;;;;;;;5030454;28;20192;-84
2022/05/04 14:56:43;;;;;;;1.48;0.90;;;;;;;;;;5020747;28;20230;-83
2022/05/04 14:59:09;;;;;;;1.30;0.80;;;;;;;;;;5033524;28;20205;-85
2022/05/04 15:01:36;;;;;;;1.00;0.85;;;;;;;;;;5022565;28;20186;-86